sensor_id;sensor_type;location;lat;lon;timestamp;temperature;humidity
16128;DHT22;8168;49.036;7.690;2022-08-16T00:00:42;17.40;99.90
16128;DHT22;8168;49.036;7.690;2022-08-16T00:03:13;17.40;99.90
16128;DHT22;8168;49.036;7.690;2022-08-16T00:05:44;17.40;99.90
16128;DHT22;8168;49.036;7.690;2022-08-16T00:08:15;17.40;99.90
16128;DHT22;8168;49.036;7.690;2022-08-16T00:10:46;17.40;99.90
16128;DHT22;8168;49.036;7.690;2022-08-16T00:13:17;17.40;99.90
16128;DHT22;8168;49.036;7.690;2022-08-16T00:15:48;17.40;99.90
16128;DHT22;8168;49.036;7.690;2022-08-16T00:18:19;17.40;99.90
16128;DHT22;8168;49.036;7.690;2022-08-16T00:20:50;17.40;99.90
16128;DHT22;8168;49.036;7.690;2022-08-16T00:23:21;17.40;99.90
16128;DHT22;8168;49.036;7.690;2022-08-16T00:25:51;17.40;99.90
16128;DHT22;8168;49.036;7.690;2022-08-16T00:28:22;17.40;99.90
16128;DHT22;8168;49.036;7.690;2022-08-16T00:30:53;17.40;99.90
16128;DHT22;8168;49.036;7.690;2022-08-16T00:33:23;17.40;99.90
16128;DHT22;8168;49.036;7.690;2022-08-16T00:35:54;17.40;99.90
16128;DHT22;8168;49.036;7.690;2022-08-16T00:38:24;17.30;99.90
16128;DHT22;8168;49.036;7.690;2022-08-16T00:40:56;17.40;99.90
16128;DHT22;8168;49.036;7.690;2022-08-16T00:43:29;17.30;99.90
16128;DHT22;8168;49.036;7.690;2022-08-16T00:48:50;17.30;99.90
16128;DHT22;8168;49.036;7.690;2022-08-16T00:51:22;17.30;99.90
16128;DHT22;8168;49.036;7.690;2022-08-16T00:53:54;17.30;99.90
16128;DHT22;8168;49.036;7.690;2022-08-16T00:56:31;17.30;99.90
16128;DHT22;8168;49.036;7.690;2022-08-16T00:59:04;17.30;99.90
16128;DHT22;8168;49.036;7.690;2022-08-16T01:01:34;17.30;99.90
16128;DHT22;8168;49.036;7.690;2022-08-16T01:04:05;17.30;99.90
16128;DHT22;8168;49.036;7.690;2022-08-16T01:06:37;17.30;99.90
16128;DHT22;8168;49.036;7.690;2022-08-16T01:09:08;17.30;99.90
16128;DHT22;8168;49.036;7.690;2022-08-16T01:11:39;17.30;99.90
16128;DHT22;8168;49.036;7.690;2022-08-16T01:14:18;17.30;99.90
16128;DHT22;8168;49.036;7.690;2022-08-16T01:16:50;17.30;99.90
16128;DHT22;8168;49.036;7.690;2022-08-16T01:22:01;17.30;99.90
16128;DHT22;8168;49.036;7.690;2022-08-16T01:24:54;17.30;99.90
16128;DHT22;8168;49.036;7.690;2022-08-16T01:27:32;17.30;99.90
16128;DHT22;8168;49.036;7.690;2022-08-16T01:30:28;17.30;99.90
16128;DHT22;8168;49.036;7.690;2022-08-16T01:33:03;17.30;99.90
16128;DHT22;8168;49.036;7.690;2022-08-16T01:41:14;17.30;99.90
16128;DHT22;8168;49.036;7.690;2022-08-16T01:43:47;17.30;99.90
16128;DHT22;8168;49.036;7.690;2022-08-16T01:49:17;17.40;99.90
16128;DHT22;8168;49.036;7.690;2022-08-16T01:52:10;17.40;99.90
16128;DHT22;8168;49.036;7.690;2022-08-16T01:54:41;17.40;99.90
16128;DHT22;8168;49.036;7.690;2022-08-16T01:57:12;17.40;99.90
16128;DHT22;8168;49.036;7.690;2022-08-16T01:59:42;17.50;99.90
16128;DHT22;8168;49.036;7.690;2022-08-16T02:02:13;17.50;99.90
16128;DHT22;8168;49.036;7.690;2022-08-16T02:04:44;17.50;99.90
16128;DHT22;8168;49.036;7.690;2022-08-16T02:07:16;17.50;99.90
16128;DHT22;8168;49.036;7.690;2022-08-16T02:09:48;17.50;99.90
16128;DHT22;8168;49.036;7.690;2022-08-16T02:12:18;17.50;99.90
16128;DHT22;8168;49.036;7.690;2022-08-16T02:14:49;17.50;99.90
16128;DHT22;8168;49.036;7.690;2022-08-16T02:17:20;17.50;99.90
16128;DHT22;8168;49.036;7.690;2022-08-16T02:19:51;17.60;99.90
16128;DHT22;8168;49.036;7.690;2022-08-16T02:22:24;17.60;99.90
16128;DHT22;8168;49.036;7.690;2022-08-16T02:24:54;17.60;99.90
16128;DHT22;8168;49.036;7.690;2022-08-16T02:27:25;17.60;99.90
16128;DHT22;8168;49.036;7.690;2022-08-16T02:29:55;17.70;99.90
16128;DHT22;8168;49.036;7.690;2022-08-16T02:32:26;17.60;99.90
16128;DHT22;8168;49.036;7.690;2022-08-16T02:35:00;17.60;99.90
16128;DHT22;8168;49.036;7.690;2022-08-16T02:37:30;17.60;99.90
16128;DHT22;8168;49.036;7.690;2022-08-16T02:40:01;17.60;99.90
16128;DHT22;8168;49.036;7.690;2022-08-16T02:42:32;17.60;99.90
16128;DHT22;8168;49.036;7.690;2022-08-16T02:45:04;17.60;99.90
16128;DHT22;8168;49.036;7.690;2022-08-16T02:47:34;17.70;99.90
16128;DHT22;8168;49.036;7.690;2022-08-16T02:50:06;17.70;99.90
16128;DHT22;8168;49.036;7.690;2022-08-16T02:52:37;17.70;99.90
16128;DHT22;8168;49.036;7.690;2022-08-16T02:55:08;17.70;99.90
16128;DHT22;8168;49.036;7.690;2022-08-16T02:57:39;17.60;99.90
16128;DHT22;8168;49.036;7.690;2022-08-16T03:00:11;17.60;99.90
16128;DHT22;8168;49.036;7.690;2022-08-16T03:02:42;17.60;99.90
16128;DHT22;8168;49.036;7.690;2022-08-16T03:05:15;17.60;99.90
16128;DHT22;8168;49.036;7.690;2022-08-16T03:07:45;17.70;99.90
16128;DHT22;8168;49.036;7.690;2022-08-16T03:10:16;17.70;99.90
16128;DHT22;8168;49.036;7.690;2022-08-16T03:12:47;17.70;99.90
16128;DHT22;8168;49.036;7.690;2022-08-16T03:15:19;17.70;99.90
16128;DHT22;8168;49.036;7.690;2022-08-16T03:17:50;17.70;99.90
16128;DHT22;8168;49.036;7.690;2022-08-16T03:20:21;17.70;99.90
16128;DHT22;8168;49.036;7.690;2022-08-16T03:22:52;17.70;99.90
16128;DHT22;8168;49.036;7.690;2022-08-16T03:25:22;17.70;99.90
16128;DHT22;8168;49.036;7.690;2022-08-16T03:27:53;17.70;99.90
16128;DHT22;8168;49.036;7.690;2022-08-16T03:30:27;17.70;99.90
16128;DHT22;8168;49.036;7.690;2022-08-16T03:32:58;17.70;99.90
16128;DHT22;8168;49.036;7.690;2022-08-16T03:35:32;17.70;99.90
16128;DHT22;8168;49.036;7.690;2022-08-16T03:38:05;17.70;99.90
16128;DHT22;8168;49.036;7.690;2022-08-16T03:40:37;17.80;99.90
16128;DHT22;8168;49.036;7.690;2022-08-16T03:43:09;17.80;99.90
16128;DHT22;8168;49.036;7.690;2022-08-16T03:45:40;17.80;99.90
16128;DHT22;8168;49.036;7.690;2022-08-16T03:48:11;17.80;99.90
16128;DHT22;8168;49.036;7.690;2022-08-16T03:50:42;17.80;99.90
16128;DHT22;8168;49.036;7.690;2022-08-16T03:53:13;17.80;99.90
16128;DHT22;8168;49.036;7.690;2022-08-16T03:55:43;17.80;99.90
16128;DHT22;8168;49.036;7.690;2022-08-16T03:58:14;17.90;99.90
16128;DHT22;8168;49.036;7.690;2022-08-16T04:00:44;17.80;99.90
16128;DHT22;8168;49.036;7.690;2022-08-16T04:03:15;17.90;99.90
16128;DHT22;8168;49.036;7.690;2022-08-16T04:05:47;17.80;99.90
16128;DHT22;8168;49.036;7.690;2022-08-16T04:08:20;17.80;99.90
16128;DHT22;8168;49.036;7.690;2022-08-16T04:10:53;17.80;99.90
16128;DHT22;8168;49.036;7.690;2022-08-16T04:13:25;17.90;99.90
16128;DHT22;8168;49.036;7.690;2022-08-16T04:15:56;17.80;99.90
16128;DHT22;8168;49.036;7.690;2022-08-16T04:18:28;17.90;99.90
16128;DHT22;8168;49.036;7.690;2022-08-16T04:21:00;17.90;99.90
16128;DHT22;8168;49.036;7.690;2022-08-16T04:23:31;17.90;99.90
16128;DHT22;8168;49.036;7.690;2022-08-16T04:26:01;17.90;99.90
16128;DHT22;8168;49.036;7.690;2022-08-16T04:28:32;17.90;99.90
16128;DHT22;8168;49.036;7.690;2022-08-16T04:31:03;17.80;99.90
16128;DHT22;8168;49.036;7.690;2022-08-16T04:33:33;17.80;99.90
16128;DHT22;8168;49.036;7.690;2022-08-16T04:36:04;17.70;99.90
16128;DHT22;8168;49.036;7.690;2022-08-16T04:38:35;17.70;99.90
16128;DHT22;8168;49.036;7.690;2022-08-16T04:41:05;17.70;99.90
16128;DHT22;8168;49.036;7.690;2022-08-16T04:43:36;17.70;99.90
16128;DHT22;8168;49.036;7.690;2022-08-16T04:46:08;17.60;99.90
16128;DHT22;8168;49.036;7.690;2022-08-16T04:48:39;17.60;99.90
16128;DHT22;8168;49.036;7.690;2022-08-16T04:51:11;17.60;99.90
16128;DHT22;8168;49.036;7.690;2022-08-16T04:53:41;17.60;99.90
16128;DHT22;8168;49.036;7.690;2022-08-16T04:56:12;17.60;99.90
16128;DHT22;8168;49.036;7.690;2022-08-16T04:58:43;17.70;99.90
16128;DHT22;8168;49.036;7.690;2022-08-16T05:01:14;17.60;99.90
16128;DHT22;8168;49.036;7.690;2022-08-16T05:03:47;17.60;99.90
16128;DHT22;8168;49.036;7.690;2022-08-16T05:06:18;17.50;99.90
16128;DHT22;8168;49.036;7.690;2022-08-16T05:08:49;17.50;99.90
16128;DHT22;8168;49.036;7.690;2022-08-16T05:11:19;17.40;99.90
16128;DHT22;8168;49.036;7.690;2022-08-16T05:13:51;17.40;99.90
16128;DHT22;8168;49.036;7.690;2022-08-16T05:16:27;17.40;99.90
16128;DHT22;8168;49.036;7.690;2022-08-16T05:18:59;17.40;99.90
16128;DHT22;8168;49.036;7.690;2022-08-16T05:21:31;17.40;99.90
16128;DHT22;8168;49.036;7.690;2022-08-16T05:24:04;17.40;99.90
16128;DHT22;8168;49.036;7.690;2022-08-16T05:26:35;17.30;99.90
16128;DHT22;8168;49.036;7.690;2022-08-16T05:29:06;17.40;99.90
16128;DHT22;8168;49.036;7.690;2022-08-16T05:31:37;17.40;99.90
16128;DHT22;8168;49.036;7.690;2022-08-16T05:34:08;17.40;99.90
16128;DHT22;8168;49.036;7.690;2022-08-16T05:36:39;17.40;99.90
16128;DHT22;8168;49.036;7.690;2022-08-16T05:39:09;17.40;99.90
16128;DHT22;8168;49.036;7.690;2022-08-16T05:41:40;17.40;99.90
16128;DHT22;8168;49.036;7.690;2022-08-16T05:44:11;17.40;99.90
16128;DHT22;8168;49.036;7.690;2022-08-16T05:46:42;17.40;99.90
16128;DHT22;8168;49.036;7.690;2022-08-16T05:49:14;17.40;99.90
16128;DHT22;8168;49.036;7.690;2022-08-16T05:51:46;17.40;99.90
16128;DHT22;8168;49.036;7.690;2022-08-16T05:54:17;17.50;99.90
16128;DHT22;8168;49.036;7.690;2022-08-16T05:56:48;17.50;99.90
16128;DHT22;8168;49.036;7.690;2022-08-16T05:59:19;17.50;99.90
16128;DHT22;8168;49.036;7.690;2022-08-16T06:01:50;17.60;99.90
16128;DHT22;8168;49.036;7.690;2022-08-16T06:04:21;17.60;99.90
16128;DHT22;8168;49.036;7.690;2022-08-16T06:06:52;17.70;99.90
16128;DHT22;8168;49.036;7.690;2022-08-16T06:09:24;17.80;99.90
16128;DHT22;8168;49.036;7.690;2022-08-16T06:11:58;17.80;99.90
16128;DHT22;8168;49.036;7.690;2022-08-16T06:14:32;19.40;99.90
16128;DHT22;8168;49.036;7.690;2022-08-16T06:17:02;17.90;99.90
16128;DHT22;8168;49.036;7.690;2022-08-16T06:19:33;17.90;99.90
16128;DHT22;8168;49.036;7.690;2022-08-16T06:22:04;17.90;99.90
16128;DHT22;8168;49.036;7.690;2022-08-16T06:24:35;18.00;99.90
16128;DHT22;8168;49.036;7.690;2022-08-16T06:27:06;18.00;99.90
16128;DHT22;8168;49.036;7.690;2022-08-16T06:29:37;18.10;99.90
16128;DHT22;8168;49.036;7.690;2022-08-16T06:32:07;18.10;99.90
16128;DHT22;8168;49.036;7.690;2022-08-16T06:34:38;18.20;99.90
16128;DHT22;8168;49.036;7.690;2022-08-16T06:37:09;18.30;99.90
16128;DHT22;8168;49.036;7.690;2022-08-16T06:39:39;18.40;99.90
16128;DHT22;8168;49.036;7.690;2022-08-16T06:42:10;18.50;99.90
16128;DHT22;8168;49.036;7.690;2022-08-16T06:44:40;18.50;99.90
16128;DHT22;8168;49.036;7.690;2022-08-16T06:47:12;17.40;99.90
16128;DHT22;8168;49.036;7.690;2022-08-16T06:49:43;18.70;99.90
16128;DHT22;8168;49.036;7.690;2022-08-16T06:52:14;18.70;99.90
16128;DHT22;8168;49.036;7.690;2022-08-16T06:54:44;18.80;99.90
16128;DHT22;8168;49.036;7.690;2022-08-16T06:57:15;18.80;99.90
16128;DHT22;8168;49.036;7.690;2022-08-16T06:59:49;19.00;99.90
16128;DHT22;8168;49.036;7.690;2022-08-16T07:02:20;19.10;99.90
16128;DHT22;8168;49.036;7.690;2022-08-16T07:04:51;19.10;99.90
16128;DHT22;8168;49.036;7.690;2022-08-16T07:07:22;19.20;99.90
16128;DHT22;8168;49.036;7.690;2022-08-16T07:09:52;19.30;99.90
16128;DHT22;8168;49.036;7.690;2022-08-16T07:12:24;19.30;99.90
16128;DHT22;8168;49.036;7.690;2022-08-16T07:14:54;19.50;99.90
16128;DHT22;8168;49.036;7.690;2022-08-16T07:17:27;19.60;99.90
16128;DHT22;8168;49.036;7.690;2022-08-16T07:19:58;19.70;99.90
16128;DHT22;8168;49.036;7.690;2022-08-16T07:22:29;19.80;99.90
16128;DHT22;8168;49.036;7.690;2022-08-16T07:24:59;20.00;99.90
16128;DHT22;8168;49.036;7.690;2022-08-16T07:27:30;20.10;99.90
16128;DHT22;8168;49.036;7.690;2022-08-16T07:30:03;20.20;99.90
16128;DHT22;8168;49.036;7.690;2022-08-16T07:32:34;20.40;99.90
16128;DHT22;8168;49.036;7.690;2022-08-16T07:35:05;20.50;99.90
16128;DHT22;8168;49.036;7.690;2022-08-16T07:37:36;20.60;99.90
16128;DHT22;8168;49.036;7.690;2022-08-16T07:40:07;20.70;99.90
16128;DHT22;8168;49.036;7.690;2022-08-16T07:42:38;20.80;99.90
16128;DHT22;8168;49.036;7.690;2022-08-16T07:45:09;21.00;99.90
16128;DHT22;8168;49.036;7.690;2022-08-16T07:47:42;21.10;99.90
16128;DHT22;8168;49.036;7.690;2022-08-16T07:50:14;21.10;99.90
16128;DHT22;8168;49.036;7.690;2022-08-16T07:52:46;21.10;99.90
16128;DHT22;8168;49.036;7.690;2022-08-16T07:55:16;21.20;99.90
16128;DHT22;8168;49.036;7.690;2022-08-16T07:57:48;21.20;99.90
16128;DHT22;8168;49.036;7.690;2022-08-16T08:00:18;21.30;99.90
16128;DHT22;8168;49.036;7.690;2022-08-16T08:02:49;21.40;99.90
16128;DHT22;8168;49.036;7.690;2022-08-16T08:05:21;21.40;99.90
16128;DHT22;8168;49.036;7.690;2022-08-16T08:07:52;21.50;99.90
16128;DHT22;8168;49.036;7.690;2022-08-16T08:10:24;21.60;99.90
16128;DHT22;8168;49.036;7.690;2022-08-16T08:12:55;21.60;99.90
16128;DHT22;8168;49.036;7.690;2022-08-16T08:15:27;21.70;99.90
16128;DHT22;8168;49.036;7.690;2022-08-16T08:17:58;21.80;99.90
16128;DHT22;8168;49.036;7.690;2022-08-16T08:20:30;21.80;99.90
16128;DHT22;8168;49.036;7.690;2022-08-16T08:23:01;21.90;99.90
16128;DHT22;8168;49.036;7.690;2022-08-16T08:25:32;22.00;99.90
16128;DHT22;8168;49.036;7.690;2022-08-16T08:28:03;22.10;99.90
16128;DHT22;8168;49.036;7.690;2022-08-16T08:30:34;22.20;99.90
16128;DHT22;8168;49.036;7.690;2022-08-16T08:33:05;22.20;99.90
16128;DHT22;8168;49.036;7.690;2022-08-16T08:35:35;22.40;99.90
16128;DHT22;8168;49.036;7.690;2022-08-16T08:38:06;22.40;99.90
16128;DHT22;8168;49.036;7.690;2022-08-16T08:40:37;22.40;99.90
16128;DHT22;8168;49.036;7.690;2022-08-16T08:43:08;22.50;99.90
16128;DHT22;8168;49.036;7.690;2022-08-16T08:45:42;22.60;99.90
16128;DHT22;8168;49.036;7.690;2022-08-16T08:48:13;22.60;99.90
16128;DHT22;8168;49.036;7.690;2022-08-16T08:50:43;22.70;99.90
16128;DHT22;8168;49.036;7.690;2022-08-16T08:53:15;22.80;99.90
16128;DHT22;8168;49.036;7.690;2022-08-16T08:55:46;22.80;99.90
16128;DHT22;8168;49.036;7.690;2022-08-16T08:58:19;22.80;99.90
16128;DHT22;8168;49.036;7.690;2022-08-16T09:00:50;22.80;99.90
16128;DHT22;8168;49.036;7.690;2022-08-16T09:03:20;22.90;99.60
16128;DHT22;8168;49.036;7.690;2022-08-16T09:05:51;23.00;99.60
16128;DHT22;8168;49.036;7.690;2022-08-16T09:08:22;23.00;99.60
16128;DHT22;8168;49.036;7.690;2022-08-16T09:10:57;23.10;98.40
16128;DHT22;8168;49.036;7.690;2022-08-16T09:13:28;23.10;98.70
16128;DHT22;8168;49.036;7.690;2022-08-16T09:16:00;23.30;99.50
16128;DHT22;8168;49.036;7.690;2022-08-16T09:18:31;23.30;99.00
16128;DHT22;8168;49.036;7.690;2022-08-16T09:21:02;23.40;98.60
16128;DHT22;8168;49.036;7.690;2022-08-16T09:23:32;23.40;98.60
16128;DHT22;8168;49.036;7.690;2022-08-16T09:26:06;23.60;99.30
16128;DHT22;8168;49.036;7.690;2022-08-16T09:28:37;23.70;98.50
16128;DHT22;8168;49.036;7.690;2022-08-16T09:31:08;23.90;98.20
16128;DHT22;8168;49.036;7.690;2022-08-16T09:33:40;23.90;98.00
16128;DHT22;8168;49.036;7.690;2022-08-16T09:36:11;24.00;97.00
16128;DHT22;8168;49.036;7.690;2022-08-16T09:38:42;24.00;96.00
16128;DHT22;8168;49.036;7.690;2022-08-16T09:41:13;24.00;96.10
16128;DHT22;8168;49.036;7.690;2022-08-16T09:43:44;23.90;96.20
16128;DHT22;8168;49.036;7.690;2022-08-16T09:46:14;23.90;96.20
16128;DHT22;8168;49.036;7.690;2022-08-16T09:48:45;24.00;96.00
16128;DHT22;8168;49.036;7.690;2022-08-16T09:51:16;24.10;95.80
16128;DHT22;8168;49.036;7.690;2022-08-16T09:53:46;24.10;95.20
16128;DHT22;8168;49.036;7.690;2022-08-16T09:56:32;24.10;94.90
16128;DHT22;8168;49.036;7.690;2022-08-16T09:59:05;24.20;95.60
16128;DHT22;8168;49.036;7.690;2022-08-16T10:01:36;24.40;95.40
16128;DHT22;8168;49.036;7.690;2022-08-16T10:04:08;24.50;95.50
16128;DHT22;8168;49.036;7.690;2022-08-16T10:06:38;24.60;95.30
16128;DHT22;8168;49.036;7.690;2022-08-16T10:09:09;24.60;94.50
16128;DHT22;8168;49.036;7.690;2022-08-16T10:11:41;24.60;94.40
16128;DHT22;8168;49.036;7.690;2022-08-16T10:14:31;24.50;94.20
16128;DHT22;8168;49.036;7.690;2022-08-16T10:17:03;24.40;94.30
16128;DHT22;8168;49.036;7.690;2022-08-16T10:19:34;24.40;94.20
16128;DHT22;8168;49.036;7.690;2022-08-16T10:22:04;24.40;94.10
16128;DHT22;8168;49.036;7.690;2022-08-16T10:24:35;24.40;94.00
16128;DHT22;8168;49.036;7.690;2022-08-16T10:27:06;24.40;94.10
16128;DHT22;8168;49.036;7.690;2022-08-16T10:29:37;24.50;93.90
16128;DHT22;8168;49.036;7.690;2022-08-16T10:32:07;24.50;94.00
16128;DHT22;8168;49.036;7.690;2022-08-16T10:34:38;24.50;93.50
16128;DHT22;8168;49.036;7.690;2022-08-16T10:37:09;24.50;93.40
16128;DHT22;8168;49.036;7.690;2022-08-16T10:39:39;24.60;93.10
16128;DHT22;8168;49.036;7.690;2022-08-16T10:42:10;24.60;93.60
16128;DHT22;8168;49.036;7.690;2022-08-16T10:44:41;24.90;94.00
16128;DHT22;8168;49.036;7.690;2022-08-16T10:47:12;25.20;92.90
16128;DHT22;8168;49.036;7.690;2022-08-16T10:49:42;25.50;93.00
16128;DHT22;8168;49.036;7.690;2022-08-16T10:52:13;25.70;91.20
16128;DHT22;8168;49.036;7.690;2022-08-16T10:54:44;25.90;92.30
16128;DHT22;8168;49.036;7.690;2022-08-16T10:57:14;26.00;91.60
16128;DHT22;8168;49.036;7.690;2022-08-16T10:59:45;25.90;90.60
16128;DHT22;8168;49.036;7.690;2022-08-16T11:02:16;25.80;90.20
16128;DHT22;8168;49.036;7.690;2022-08-16T11:04:48;25.80;90.20
16128;DHT22;8168;49.036;7.690;2022-08-16T11:07:18;25.70;90.20
16128;DHT22;8168;49.036;7.690;2022-08-16T11:09:49;25.60;89.70
16128;DHT22;8168;49.036;7.690;2022-08-16T11:12:20;25.50;90.40
16128;DHT22;8168;49.036;7.690;2022-08-16T11:14:51;25.40;90.50
16128;DHT22;8168;49.036;7.690;2022-08-16T11:17:21;25.40;90.70
16128;DHT22;8168;49.036;7.690;2022-08-16T11:19:52;25.50;90.90
16128;DHT22;8168;49.036;7.690;2022-08-16T11:22:22;25.80;91.10
16128;DHT22;8168;49.036;7.690;2022-08-16T11:24:53;26.00;90.80
16128;DHT22;8168;49.036;7.690;2022-08-16T11:27:24;26.10;90.20
16128;DHT22;8168;49.036;7.690;2022-08-16T11:29:56;26.40;91.10
16128;DHT22;8168;49.036;7.690;2022-08-16T11:32:28;26.60;90.10
16128;DHT22;8168;49.036;7.690;2022-08-16T11:35:15;26.80;89.60
16128;DHT22;8168;49.036;7.690;2022-08-16T11:37:52;27.00;86.80
16128;DHT22;8168;49.036;7.690;2022-08-16T11:40:26;27.10;86.70
16128;DHT22;8168;49.036;7.690;2022-08-16T11:42:57;27.10;87.00
16128;DHT22;8168;49.036;7.690;2022-08-16T11:45:28;27.20;87.20
16128;DHT22;8168;49.036;7.690;2022-08-16T11:47:58;27.30;85.00
16128;DHT22;8168;49.036;7.690;2022-08-16T11:50:30;27.30;84.30
16128;DHT22;8168;49.036;7.690;2022-08-16T11:53:04;27.40;82.80
16128;DHT22;8168;49.036;7.690;2022-08-16T11:55:36;27.50;82.90
16128;DHT22;8168;49.036;7.690;2022-08-16T11:58:08;27.50;80.50
16128;DHT22;8168;49.036;7.690;2022-08-16T12:00:42;27.60;81.00
16128;DHT22;8168;49.036;7.690;2022-08-16T12:03:13;27.60;81.60
16128;DHT22;8168;49.036;7.690;2022-08-16T12:05:45;27.70;80.40
16128;DHT22;8168;49.036;7.690;2022-08-16T12:08:16;27.90;80.00
16128;DHT22;8168;49.036;7.690;2022-08-16T12:10:47;28.00;78.00
16128;DHT22;8168;49.036;7.690;2022-08-16T12:13:17;28.00;78.90
16128;DHT22;8168;49.036;7.690;2022-08-16T12:15:48;28.10;79.70
16128;DHT22;8168;49.036;7.690;2022-08-16T12:18:18;28.10;77.10
16128;DHT22;8168;49.036;7.690;2022-08-16T12:20:50;28.10;76.70
16128;DHT22;8168;49.036;7.690;2022-08-16T12:23:21;28.10;75.10
16128;DHT22;8168;49.036;7.690;2022-08-16T12:25:52;28.20;74.20
16128;DHT22;8168;49.036;7.690;2022-08-16T12:28:23;28.20;73.20
16128;DHT22;8168;49.036;7.690;2022-08-16T12:30:54;28.20;74.20
16128;DHT22;8168;49.036;7.690;2022-08-16T12:33:24;28.20;73.20
16128;DHT22;8168;49.036;7.690;2022-08-16T12:35:55;28.40;76.00
16128;DHT22;8168;49.036;7.690;2022-08-16T12:38:26;28.50;73.70
16128;DHT22;8168;49.036;7.690;2022-08-16T12:40:56;28.50;74.40
16128;DHT22;8168;49.036;7.690;2022-08-16T12:43:27;28.60;72.80
16128;DHT22;8168;49.036;7.690;2022-08-16T12:45:58;28.60;73.60
16128;DHT22;8168;49.036;7.690;2022-08-16T12:48:31;28.60;73.50
16128;DHT22;8168;49.036;7.690;2022-08-16T12:51:22;28.50;71.00
16128;DHT22;8168;49.036;7.690;2022-08-16T12:53:55;28.40;72.00
16128;DHT22;8168;49.036;7.690;2022-08-16T12:56:31;28.50;70.10
16128;DHT22;8168;49.036;7.690;2022-08-16T12:59:06;28.50;70.80
16128;DHT22;8168;49.036;7.690;2022-08-16T13:01:38;28.70;72.60
16128;DHT22;8168;49.036;7.690;2022-08-16T13:04:11;28.70;71.70
16128;DHT22;8168;49.036;7.690;2022-08-16T13:06:42;28.60;70.30
16128;DHT22;8168;49.036;7.690;2022-08-16T13:09:13;28.40;71.00
16128;DHT22;8168;49.036;7.690;2022-08-16T13:12:02;28.30;71.10
16128;DHT22;8168;49.036;7.690;2022-08-16T13:14:39;28.10;71.20
16128;DHT22;8168;49.036;7.690;2022-08-16T13:17:14;27.90;72.10
16128;DHT22;8168;49.036;7.690;2022-08-16T13:19:47;27.90;73.10
16128;DHT22;8168;49.036;7.690;2022-08-16T13:22:19;27.80;73.90
16128;DHT22;8168;49.036;7.690;2022-08-16T13:24:52;27.70;73.70
16128;DHT22;8168;49.036;7.690;2022-08-16T13:27:23;27.90;75.50
16128;DHT22;8168;49.036;7.690;2022-08-16T13:29:53;28.10;75.20
16128;DHT22;8168;49.036;7.690;2022-08-16T13:32:24;28.40;72.60
16128;DHT22;8168;49.036;7.690;2022-08-16T13:34:55;28.50;72.70
16128;DHT22;8168;49.036;7.690;2022-08-16T13:37:25;28.60;72.60
16128;DHT22;8168;49.036;7.690;2022-08-16T13:39:56;29.50;71.10
16128;DHT22;8168;49.036;7.690;2022-08-16T13:42:27;28.80;71.50
16128;DHT22;8168;49.036;7.690;2022-08-16T13:44:58;28.90;71.60
16128;DHT22;8168;49.036;7.690;2022-08-16T13:47:28;29.10;70.90
16128;DHT22;8168;49.036;7.690;2022-08-16T13:49:59;29.20;69.00
16128;DHT22;8168;49.036;7.690;2022-08-16T13:52:29;29.20;67.30
16128;DHT22;8168;49.036;7.690;2022-08-16T13:55:01;29.30;67.10
16128;DHT22;8168;49.036;7.690;2022-08-16T13:57:32;29.20;67.80
16128;DHT22;8168;49.036;7.690;2022-08-16T14:00:05;29.20;67.40
16128;DHT22;8168;49.036;7.690;2022-08-16T14:02:38;29.20;65.70
16128;DHT22;8168;49.036;7.690;2022-08-16T14:05:09;29.20;66.90
16128;DHT22;8168;49.036;7.690;2022-08-16T14:07:40;29.20;66.90
16128;DHT22;8168;49.036;7.690;2022-08-16T14:10:11;29.20;67.10
16128;DHT22;8168;49.036;7.690;2022-08-16T14:12:42;29.10;66.70
16128;DHT22;8168;49.036;7.690;2022-08-16T14:15:13;28.90;66.50
16128;DHT22;8168;49.036;7.690;2022-08-16T14:17:45;28.90;66.90
16128;DHT22;8168;49.036;7.690;2022-08-16T14:20:16;29.00;66.40
16128;DHT22;8168;49.036;7.690;2022-08-16T14:22:47;29.00;66.90
16128;DHT22;8168;49.036;7.690;2022-08-16T14:25:19;28.90;66.90
16128;DHT22;8168;49.036;7.690;2022-08-16T14:27:50;28.90;66.30
16128;DHT22;8168;49.036;7.690;2022-08-16T14:30:21;28.90;65.80
16128;DHT22;8168;49.036;7.690;2022-08-16T14:32:52;29.00;66.60
16128;DHT22;8168;49.036;7.690;2022-08-16T14:35:27;28.70;66.00
16128;DHT22;8168;49.036;7.690;2022-08-16T14:37:59;28.70;66.80
16128;DHT22;8168;49.036;7.690;2022-08-16T14:40:30;28.80;65.50
16128;DHT22;8168;49.036;7.690;2022-08-16T14:43:01;28.80;66.70
16128;DHT22;8168;49.036;7.690;2022-08-16T14:45:32;28.70;66.60
16128;DHT22;8168;49.036;7.690;2022-08-16T14:48:03;28.60;69.30
16128;DHT22;8168;49.036;7.690;2022-08-16T14:50:34;28.60;68.90
16128;DHT22;8168;49.036;7.690;2022-08-16T14:53:07;28.80;68.50
16128;DHT22;8168;49.036;7.690;2022-08-16T14:55:38;28.80;67.60
16128;DHT22;8168;49.036;7.690;2022-08-16T14:58:09;28.90;69.20
16128;DHT22;8168;49.036;7.690;2022-08-16T15:00:39;28.90;67.70
16128;DHT22;8168;49.036;7.690;2022-08-16T15:03:10;28.90;67.00
16128;DHT22;8168;49.036;7.690;2022-08-16T15:05:41;29.00;67.80
16128;DHT22;8168;49.036;7.690;2022-08-16T15:08:12;29.10;68.00
16128;DHT22;8168;49.036;7.690;2022-08-16T15:10:43;29.20;67.40
16128;DHT22;8168;49.036;7.690;2022-08-16T15:13:14;29.20;66.90
16128;DHT22;8168;49.036;7.690;2022-08-16T15:15:45;29.20;66.70
16128;DHT22;8168;49.036;7.690;2022-08-16T15:18:16;29.20;66.60
16128;DHT22;8168;49.036;7.690;2022-08-16T15:20:46;29.30;66.80
16128;DHT22;8168;49.036;7.690;2022-08-16T15:23:17;29.20;66.20
16128;DHT22;8168;49.036;7.690;2022-08-16T15:25:47;29.20;67.00
16128;DHT22;8168;49.036;7.690;2022-08-16T15:28:18;29.20;66.60
16128;DHT22;8168;49.036;7.690;2022-08-16T15:30:49;29.10;65.40
16128;DHT22;8168;49.036;7.690;2022-08-16T15:33:21;29.10;65.40
16128;DHT22;8168;49.036;7.690;2022-08-16T15:35:54;29.00;65.30
16128;DHT22;8168;49.036;7.690;2022-08-16T15:38:26;29.10;65.50
16128;DHT22;8168;49.036;7.690;2022-08-16T15:40:57;29.20;67.20
16128;DHT22;8168;49.036;7.690;2022-08-16T15:43:28;29.20;65.90
16128;DHT22;8168;49.036;7.690;2022-08-16T15:46:00;29.30;66.70
16128;DHT22;8168;49.036;7.690;2022-08-16T15:48:49;29.20;65.60
16128;DHT22;8168;49.036;7.690;2022-08-16T15:51:20;29.20;65.90
16128;DHT22;8168;49.036;7.690;2022-08-16T15:53:51;29.20;66.30
16128;DHT22;8168;49.036;7.690;2022-08-16T15:56:25;29.10;66.60
16128;DHT22;8168;49.036;7.690;2022-08-16T15:58:56;29.10;65.80
16128;DHT22;8168;49.036;7.690;2022-08-16T16:01:26;29.10;65.40
16128;DHT22;8168;49.036;7.690;2022-08-16T16:03:57;29.00;65.70
16128;DHT22;8168;49.036;7.690;2022-08-16T16:06:28;29.00;65.80
16128;DHT22;8168;49.036;7.690;2022-08-16T16:08:59;28.80;65.60
16128;DHT22;8168;49.036;7.690;2022-08-16T16:11:29;28.70;65.70
16128;DHT22;8168;49.036;7.690;2022-08-16T16:14:00;28.60;66.80
16128;DHT22;8168;49.036;7.690;2022-08-16T16:16:32;28.50;67.40
16128;DHT22;8168;49.036;7.690;2022-08-16T16:19:02;28.40;68.70
16128;DHT22;8168;49.036;7.690;2022-08-16T16:21:33;28.40;69.70
16128;DHT22;8168;49.036;7.690;2022-08-16T16:24:04;28.40;69.60
16128;DHT22;8168;49.036;7.690;2022-08-16T16:26:35;28.40;69.20